Terminal Aerodrome Forecast
Issued by NWS Lake Charles, LA

Home | Current Version | Previous Version | Text Only | Print | Product List | Glossary On
Versions: 1 2 3 4 5 6 7 8 9 10 11 12 13 14 15 16 17 18
000
FTUS44 KLCH 201500 AAC
TAFBPT
TAF AMD
KBPT 201509Z 2015/2112 02009KT P6SM OVC007
     FM201800 03011KT P6SM BKN015
     FM202100 03009KT P6SM SCT050=

USA.gov is the U.S. government's official web portal to all federal, state and local government web resources and services.